LFMK/CCF METAR and TAF weather

Enter ICAO airport designator
Station Type Date Time Source
LFMK METAR 2021/05/15 02:00 UTC NOAA

LFMK 150200Z AUTO 17003KT 130V200 9999 SCT070 BKN084 BKN110 11/08 Q1014


Station Type Date Time Source
LFMK Decoded METAR 2021/05/15 02:00 UTC NOAA

Carcassonne, France (LFMK) 43-13N 002-19E 130M
May 14, 2021 - 10:00 PM EDT / 2021.05.15 0200 UTC
Wind: from the S (170 degrees) at 3 MPH (3 KT) (direction variable):0
Visibility: greater than 7 mile(s):0
Sky conditions: mostly cloudy
Temperature: 51 F (11 C)
Dew Point: 46 F (8 C)
Relative Humidity: 81%
Pressure (altimeter): 29.94 in. Hg (1014 hPa)
ob: LFMK 150200Z AUTO 17003KT 130V200 9999 SCT070 BKN084 BKN110 11/08 Q1014
cycle: 2

Station Type Date Time Source
LFMK TAF 2021/05/14 18:15 UTC NOAA

TAF LFMK 141807Z 1418/1515 CNL

Example: see airport list